Aguila, Arizona
Current Conditions -  °F | °C
As of 8:55 AM on Thursday 23 Oct 2014 (Local Time) from KBXK Reporting Station
Clear Clear  
Wind Chill: 72°   Ceiling: Unl
Heat Index: 72°   Visibility: 10mi
Dew Point: 50°   Wind: 0mph
Humidity: 46%   Direction: NA
Pressure: 30.04"   Gusts: NA
Location:  33.94°N, 113.18°W
Report Text: KBXK 231555Z AUTO 00000KT 10SM CLR 22/10 A3004 RMK AO1
Loading
Personal Weather Stations






























Interactive Weather Map
Tropical Storm Tracking
New forecast layout! Learn more

10-Day Weather Forecast

Advertisements
Track Severe Weather on mobile